sensor_id;sensor_type;location;lat;lon;timestamp;pressure;altitude;pressure_sealevel;temperature;humidity
39699;BME280;25372;50.582;12.250;2023-09-12T00:09:05;99480.72;;;15.69;86.12
39699;BME280;25372;50.582;12.250;2023-09-12T00:19:27;99482.50;;;15.48;87.55
39699;BME280;25372;50.582;12.250;2023-09-12T00:29:48;99484.97;;;15.30;88.53
39699;BME280;25372;50.582;12.250;2023-09-12T00:40:11;99472.56;;;15.01;89.02
39699;BME280;25372;50.582;12.250;2023-09-12T00:50:32;99474.47;;;14.89;88.92
39699;BME280;25372;50.582;12.250;2023-09-12T01:00:54;99484.81;;;14.71;90.42
39699;BME280;25372;50.582;12.250;2023-09-12T01:11:17;99469.03;;;14.60;90.35
39699;BME280;25372;50.582;12.250;2023-09-12T01:22:03;99477.88;;;14.49;92.12
39699;BME280;25372;50.582;12.250;2023-09-12T01:32:31;99473.81;;;14.66;90.15
39699;BME280;25372;50.582;12.250;2023-09-12T01:42:53;99488.63;;;14.78;90.02
39699;BME280;25372;50.582;12.250;2023-09-12T01:53:16;99475.41;;;14.57;90.66
39699;BME280;25372;50.582;12.250;2023-09-12T02:03:37;99485.53;;;14.21;91.86
39699;BME280;25372;50.582;12.250;2023-09-12T02:13:59;99487.16;;;14.12;93.11
39699;BME280;25372;50.582;12.250;2023-09-12T02:24:20;99479.53;;;13.97;92.48
39699;BME280;25372;50.582;12.250;2023-09-12T02:34:43;99484.06;;;13.86;93.56
39699;BME280;25372;50.582;12.250;2023-09-12T02:45:05;99490.16;;;13.86;95.15
39699;BME280;25372;50.582;12.250;2023-09-12T02:55:28;99482.16;;;13.97;93.52
39699;BME280;25372;50.582;12.250;2023-09-12T03:05:57;99480.81;;;13.82;92.39
39699;BME280;25372;50.582;12.250;2023-09-12T03:16:19;99482.25;;;13.53;92.97
39699;BME280;25372;50.582;12.250;2023-09-12T03:26:41;99479.16;;;13.48;94.59
39699;BME280;25372;50.582;12.250;2023-09-12T03:37:03;99469.00;;;13.21;94.12
39699;BME280;25372;50.582;12.250;2023-09-12T03:47:24;99469.00;;;13.21;95.33
39699;BME280;25372;50.582;12.250;2023-09-12T03:57:47;99475.06;;;13.00;96.70
39699;BME280;25372;50.582;12.250;2023-09-12T04:08:08;99488.47;;;12.97;96.03
39699;BME280;25372;50.582;12.250;2023-09-12T04:18:30;99486.00;;;12.72;94.66
39699;BME280;25372;50.582;12.250;2023-09-12T04:28:51;99482.75;;;12.92;96.41
39699;BME280;25372;50.582;12.250;2023-09-12T04:39:13;99478.28;;;12.92;96.63
39699;BME280;25372;50.582;12.250;2023-09-12T04:49:34;99475.19;;;12.98;94.94
39699;BME280;25372;50.582;12.250;2023-09-12T04:59:57;99454.34;;;12.95;96.71
39699;BME280;25372;50.582;12.250;2023-09-12T05:10:17;99469.50;;;13.26;95.36
39699;BME280;25372;50.582;12.250;2023-09-12T05:20:40;99473.97;;;13.58;94.97
39699;BME280;25372;50.582;12.250;2023-09-12T05:31:01;99473.28;;;13.77;95.04
39699;BME280;25372;50.582;12.250;2023-09-12T05:41:24;99472.78;;;14.05;94.16
39699;BME280;25372;50.582;12.250;2023-09-12T05:51:45;99492.22;;;14.46;94.20
39699;BME280;25372;50.582;12.250;2023-09-12T06:02:07;99502.03;;;14.96;91.41
39699;BME280;25372;50.582;12.250;2023-09-12T06:12:29;99505.22;;;15.61;86.77
39699;BME280;25372;50.582;12.250;2023-09-12T06:22:54;99505.06;;;16.21;81.30
39699;BME280;25372;50.582;12.250;2023-09-12T06:33:14;99521.16;;;16.96;77.84
39699;BME280;25372;50.582;12.250;2023-09-12T06:43:36;99516.91;;;17.13;76.49
39699;BME280;25372;50.582;12.250;2023-09-12T06:53:57;99515.06;;;17.59;74.68
39699;BME280;25372;50.582;12.250;2023-09-12T07:04:20;99517.91;;;18.02;72.77
39699;BME280;25372;50.582;12.250;2023-09-12T07:14:41;99524.53;;;18.43;70.67
39699;BME280;25372;50.582;12.250;2023-09-12T07:25:04;99517.97;;;18.90;69.22
39699;BME280;25372;50.582;12.250;2023-09-12T07:35:24;99516.97;;;19.34;68.03
39699;BME280;25372;50.582;12.250;2023-09-12T07:45:46;99523.56;;;19.65;69.17
39699;BME280;25372;50.582;12.250;2023-09-12T07:56:09;99519.94;;;19.99;67.41
39699;BME280;25372;50.582;12.250;2023-09-12T08:06:32;99515.19;;;20.51;66.25
39699;BME280;25372;50.582;12.250;2023-09-12T08:16:53;99523.34;;;21.06;64.67
39699;BME280;25372;50.582;12.250;2023-09-12T08:27:14;99526.25;;;21.59;63.32
39699;BME280;25372;50.582;12.250;2023-09-12T08:37:35;99535.41;;;21.88;60.72
39699;BME280;25372;50.582;12.250;2023-09-12T08:47:59;99527.09;;;22.60;58.46
39699;BME280;25372;50.582;12.250;2023-09-12T08:58:20;99524.63;;;23.84;54.94
39699;BME280;25372;50.582;12.250;2023-09-12T09:08:44;99508.31;;;26.09;50.15
39699;BME280;25372;50.582;12.250;2023-09-12T09:19:05;99512.31;;;25.24;48.23
39699;BME280;25372;50.582;12.250;2023-09-12T09:29:31;99505.09;;;25.24;50.81
39699;BME280;25372;50.582;12.250;2023-09-12T09:39:53;99503.28;;;25.45;48.01
39699;BME280;25372;50.582;12.250;2023-09-12T09:50:16;99485.97;;;26.02;46.50
39699;BME280;25372;50.582;12.250;2023-09-12T10:00:37;99489.28;;;26.31;44.25
39699;BME280;25372;50.582;12.250;2023-09-12T10:11:00;99496.72;;;26.35;44.08
39699;BME280;25372;50.582;12.250;2023-09-12T10:21:28;99495.97;;;26.80;42.98
39699;BME280;25372;50.582;12.250;2023-09-12T10:31:50;99492.28;;;26.68;44.71
39699;BME280;25372;50.582;12.250;2023-09-12T10:42:12;99488.16;;;26.59;43.89
39699;BME280;25372;50.582;12.250;2023-09-12T10:52:34;99485.59;;;26.84;44.14
39699;BME280;25372;50.582;12.250;2023-09-12T11:02:59;99493.22;;;27.01;44.83
39699;BME280;25372;50.582;12.250;2023-09-12T11:13:37;99481.22;;;27.35;45.30
39699;BME280;25372;50.582;12.250;2023-09-12T11:23:59;99468.69;;;27.48;44.09
39699;BME280;25372;50.582;12.250;2023-09-12T11:34:21;99466.81;;;27.55;43.25
39699;BME280;25372;50.582;12.250;2023-09-12T11:44:43;99451.63;;;27.29;45.23
39699;BME280;25372;50.582;12.250;2023-09-12T11:55:06;99452.59;;;28.17;43.35
39699;BME280;25372;50.582;12.250;2023-09-12T12:05:27;99435.91;;;28.02;43.57
39699;BME280;25372;50.582;12.250;2023-09-12T12:15:51;99426.84;;;27.96;41.68
39699;BME280;25372;50.582;12.250;2023-09-12T12:26:12;99420.88;;;28.13;42.99
39699;BME280;25372;50.582;12.250;2023-09-12T12:36:41;99417.31;;;28.19;41.25
39699;BME280;25372;50.582;12.250;2023-09-12T12:47:03;99406.22;;;28.46;40.34
39699;BME280;25372;50.582;12.250;2023-09-12T12:57:26;99408.38;;;28.56;41.41
39699;BME280;25372;50.582;12.250;2023-09-12T13:07:47;99397.00;;;28.54;40.83
39699;BME280;25372;50.582;12.250;2023-09-12T13:18:09;99398.97;;;28.77;39.11
39699;BME280;25372;50.582;12.250;2023-09-12T13:28:30;99392.53;;;28.78;37.87
39699;BME280;25372;50.582;12.250;2023-09-12T13:38:52;99387.72;;;29.11;38.04
39699;BME280;25372;50.582;12.250;2023-09-12T13:49:13;99382.72;;;29.26;39.24
39699;BME280;25372;50.582;12.250;2023-09-12T13:59:35;99388.66;;;29.05;37.86
39699;BME280;25372;50.582;12.250;2023-09-12T14:09:56;99368.47;;;29.31;36.95
39699;BME280;25372;50.582;12.250;2023-09-12T14:20:18;99363.13;;;29.55;36.29
39699;BME280;25372;50.582;12.250;2023-09-12T14:30:39;99370.38;;;29.42;35.41
39699;BME280;25372;50.582;12.250;2023-09-12T14:41:05;99373.66;;;29.21;36.73
39699;BME280;25372;50.582;12.250;2023-09-12T14:51:25;99370.81;;;29.15;36.52
39699;BME280;25372;50.582;12.250;2023-09-12T15:01:48;99373.41;;;29.10;36.10
39699;BME280;25372;50.582;12.250;2023-09-12T15:12:08;99382.34;;;29.35;37.51
39699;BME280;25372;50.582;12.250;2023-09-12T15:22:31;99371.50;;;29.65;36.62
39699;BME280;25372;50.582;12.250;2023-09-12T15:32:52;99369.59;;;28.99;40.00
39699;BME280;25372;50.582;12.250;2023-09-12T15:43:14;99360.28;;;29.73;42.25
39699;BME280;25372;50.582;12.250;2023-09-12T15:53:35;99361.50;;;31.52;39.31
39699;BME280;25372;50.582;12.250;2023-09-12T16:03:57;99360.34;;;30.96;43.79
39699;BME280;25372;50.582;12.250;2023-09-12T16:14:18;99363.75;;;30.75;40.23
39699;BME280;25372;50.582;12.250;2023-09-12T16:24:40;99371.91;;;28.35;46.20
39699;BME280;25372;50.582;12.250;2023-09-12T16:35:01;99369.25;;;26.75;46.56
39699;BME280;25372;50.582;12.250;2023-09-12T16:45:23;99360.25;;;25.43;54.95
39699;BME280;25372;50.582;12.250;2023-09-12T16:55:44;99368.47;;;24.39;62.42
39699;BME280;25372;50.582;12.250;2023-09-12T17:06:06;99362.94;;;23.26;66.37
39699;BME280;25372;50.582;12.250;2023-09-12T17:16:27;99363.91;;;22.45;68.34
39699;BME280;25372;50.582;12.250;2023-09-12T17:26:49;99372.31;;;21.97;68.03
39699;BME280;25372;50.582;12.250;2023-09-12T17:37:11;99370.50;;;21.59;70.56
39699;BME280;25372;50.582;12.250;2023-09-12T17:47:34;99368.34;;;21.16;73.05
39699;BME280;25372;50.582;12.250;2023-09-12T17:57:55;99370.66;;;20.64;74.69
39699;BME280;25372;50.582;12.250;2023-09-12T18:08:19;99365.53;;;20.54;74.59
39699;BME280;25372;50.582;12.250;2023-09-12T18:18:40;99363.03;;;20.12;76.26
39699;BME280;25372;50.582;12.250;2023-09-12T18:29:03;99358.69;;;20.20;74.39
39699;BME280;25372;50.582;12.250;2023-09-12T18:39:24;99378.38;;;20.10;73.48
39699;BME280;25372;50.582;12.250;2023-09-12T18:49:46;99384.06;;;19.74;74.01
39699;BME280;25372;50.582;12.250;2023-09-12T19:00:09;99377.44;;;19.45;76.61
39699;BME280;25372;50.582;12.250;2023-09-12T19:10:31;99402.50;;;19.09;77.27
39699;BME280;25372;50.582;12.250;2023-09-12T19:20:52;99404.56;;;19.40;76.53
39699;BME280;25372;50.582;12.250;2023-09-12T19:31:15;99414.69;;;19.37;75.55
39699;BME280;25372;50.582;12.250;2023-09-12T19:41:35;99418.53;;;18.83;79.35
39699;BME280;25372;50.582;12.250;2023-09-12T19:51:57;99406.69;;;18.61;78.62
39699;BME280;25372;50.582;12.250;2023-09-12T20:02:18;99406.22;;;18.30;81.11
39699;BME280;25372;50.582;12.250;2023-09-12T20:12:40;99418.91;;;18.10;82.37
39699;BME280;25372;50.582;12.250;2023-09-12T20:23:02;99415.78;;;17.97;84.06
39699;BME280;25372;50.582;12.250;2023-09-12T20:33:25;99398.09;;;17.79;83.57
39699;BME280;25372;50.582;12.250;2023-09-12T20:43:46;99399.69;;;17.72;85.29
39699;BME280;25372;50.582;12.250;2023-09-12T20:54:08;99407.47;;;17.47;85.84
39699;BME280;25372;50.582;12.250;2023-09-12T21:04:30;99396.78;;;17.39;87.03
39699;BME280;25372;50.582;12.250;2023-09-12T21:14:52;99408.47;;;17.28;86.92
39699;BME280;25372;50.582;12.250;2023-09-12T21:25:12;99389.72;;;17.29;86.76
39699;BME280;25372;50.582;12.250;2023-09-12T21:35:35;99385.81;;;17.15;87.29
39699;BME280;25372;50.582;12.250;2023-09-12T21:45:56;99377.22;;;17.22;88.33
39699;BME280;25372;50.582;12.250;2023-09-12T21:56:18;99367.25;;;17.15;89.50
39699;BME280;25372;50.582;12.250;2023-09-12T22:06:38;99369.94;;;17.05;88.34
39699;BME280;25372;50.582;12.250;2023-09-12T22:17:01;99367.25;;;16.87;89.64
39699;BME280;25372;50.582;12.250;2023-09-12T22:27:23;99366.69;;;16.66;91.29
39699;BME280;25372;50.582;12.250;2023-09-12T22:37:45;99384.44;;;16.65;90.27
39699;BME280;25372;50.582;12.250;2023-09-12T22:48:06;99368.06;;;16.70;91.74
39699;BME280;25372;50.582;12.250;2023-09-12T22:58:29;99349.19;;;16.55;91.63
39699;BME280;25372;50.582;12.250;2023-09-12T23:08:51;99360.25;;;16.50;91.36
39699;BME280;25372;50.582;12.250;2023-09-12T23:19:13;99354.59;;;16.35;91.77
39699;BME280;25372;50.582;12.250;2023-09-12T23:29:34;99342.88;;;16.38;93.30
39699;BME280;25372;50.582;12.250;2023-09-12T23:39:56;99338.25;;;16.40;93.97
39699;BME280;25372;50.582;12.250;2023-09-12T23:50:17;99325.00;;;16.40;93.26
